createdAt,value
2018-02-25T00:00:25.898Z,0.17
2018-02-25T00:02:53.592Z,0.07
2018-02-25T00:05:21.279Z,0.08
2018-02-25T00:07:48.976Z,0.03
2018-02-25T00:10:16.662Z,0.07
2018-02-25T00:12:44.366Z,0.02
2018-02-25T00:15:12.034Z,-0.02
2018-02-25T00:17:39.731Z,-0.08
2018-02-25T00:20:07.521Z,-0.04
2018-02-25T00:22:35.210Z,0.02
2018-02-25T00:25:02.877Z,0.04
2018-02-25T00:27:30.555Z,-0.13
2018-02-25T00:29:58.263Z,-0.23
2018-02-25T00:32:25.953Z,-0.23
2018-02-25T00:34:53.791Z,-0.21
2018-02-25T00:37:21.490Z,-0.28
2018-02-25T00:39:49.150Z,-0.28
2018-02-25T00:42:16.856Z,-0.18
2018-02-25T00:44:44.736Z,-0.01
2018-02-25T00:47:12.444Z,-0.05
2018-02-25T00:49:40.104Z,-0.16
2018-02-25T00:52:07.810Z,-0.18
2018-02-25T00:54:35.473Z,-0.09
2018-02-25T00:57:03.177Z,-0.23
2018-02-25T00:59:30.858Z,-0.31
2018-02-25T01:01:58.559Z,-0.31
2018-02-25T01:04:26.225Z,-0.32
2018-02-25T01:06:53.920Z,-0.45
2018-02-25T01:09:21.582Z,-0.46
2018-02-25T01:11:49.273Z,-0.40
2018-02-25T01:14:16.942Z,-0.37
2018-02-25T01:16:44.643Z,-0.35
2018-02-25T01:19:12.358Z,-0.36
2018-02-25T01:21:40.039Z,-0.41
2018-02-25T01:24:07.685Z,-0.40
2018-02-25T01:26:35.385Z,-0.47
2018-02-25T01:29:03.458Z,-0.50
2018-02-25T01:31:31.194Z,-0.57
2018-02-25T01:33:58.869Z,-0.63
2018-02-25T01:36:26.574Z,-0.60
2018-02-25T01:38:54.408Z,-0.64
2018-02-25T01:41:22.111Z,-0.70
2018-02-25T01:43:49.767Z,-0.67
2018-02-25T01:46:17.554Z,-0.71
2018-02-25T01:48:45.220Z,-0.64
2018-02-25T01:51:13.019Z,-0.78
2018-02-25T01:53:40.714Z,-0.86
2018-02-25T01:56:08.506Z,-0.71
2018-02-25T01:58:36.218Z,-0.53
2018-02-25T02:01:03.901Z,-0.47
2018-02-25T02:03:31.603Z,-0.56
2018-02-25T02:05:59.271Z,-0.69
2018-02-25T02:08:26.982Z,-0.80
2018-02-25T02:10:54.650Z,-0.89
2018-02-25T02:13:22.349Z,-0.79
2018-02-25T02:15:50.013Z,-0.79
2018-02-25T02:18:17.722Z,-0.82
2018-02-25T02:20:45.386Z,-0.87
2018-02-25T02:23:13.086Z,-0.88
2018-02-25T02:25:40.907Z,-0.80
2018-02-25T02:28:08.625Z,-0.74
2018-02-25T02:30:36.283Z,-0.67
2018-02-25T02:33:03.948Z,-0.64
2018-02-25T02:35:31.660Z,-0.52
2018-02-25T02:37:59.383Z,-0.61
2018-02-25T02:40:27.082Z,-0.69
2018-02-25T02:42:54.754Z,-0.74
2018-02-25T02:45:22.457Z,-0.61
2018-02-25T02:47:50.302Z,-0.46
2018-02-25T02:50:18.060Z,-0.33
2018-02-25T02:52:45.730Z,-0.17
2018-02-25T02:55:13.571Z,-0.16
2018-02-25T02:57:41.267Z,-0.20
2018-02-25T03:00:08.922Z,-0.46
2018-02-25T03:02:36.635Z,-0.52
2018-02-25T03:05:04.312Z,-0.49
2018-02-25T03:07:32.126Z,-0.63
2018-02-25T03:09:59.787Z,-0.50
2018-02-25T03:12:27.535Z,-0.64
2018-02-25T03:14:55.237Z,-0.71
2018-02-25T03:17:22.935Z,-0.61
2018-02-25T03:19:50.599Z,-0.49
2018-02-25T03:22:18.311Z,-0.50
2018-02-25T03:24:45.974Z,-0.55
2018-02-25T03:27:13.679Z,-0.56
2018-02-25T03:29:41.335Z,-0.62
2018-02-25T03:32:09.043Z,-0.68
2018-02-25T03:34:36.830Z,-0.85
2018-02-25T03:37:04.718Z,-0.97
2018-02-25T03:39:32.388Z,-1.07
2018-02-25T03:42:00.127Z,-1.00
2018-02-25T03:44:27.817Z,-0.89
2018-02-25T03:46:55.475Z,-0.83
2018-02-25T03:49:23.167Z,-0.77
2018-02-25T03:51:50.882Z,-0.78
2018-02-25T03:54:18.658Z,-0.81
2018-02-25T03:56:46.331Z,-0.79
2018-02-25T03:59:14.055Z,-0.74
2018-02-25T04:01:41.742Z,-0.71
2018-02-25T04:04:09.430Z,-0.70
2018-02-25T04:06:37.091Z,-0.68
2018-02-25T04:09:05.526Z,-0.68
2018-02-25T04:11:33.189Z,-0.88
2018-02-25T04:14:00.913Z,-0.97
2018-02-25T04:16:28.582Z,-0.94
2018-02-25T04:18:56.294Z,-0.92
2018-02-25T04:21:23.951Z,-0.91
2018-02-25T04:23:51.618Z,-1.04
2018-02-25T04:26:19.331Z,-1.00
2018-02-25T04:28:46.998Z,-0.93
2018-02-25T04:31:14.702Z,-0.88
2018-02-25T04:33:42.438Z,-0.87
2018-02-25T04:36:10.153Z,-0.84
2018-02-25T04:38:37.818Z,-0.84
2018-02-25T04:41:05.526Z,-0.86
2018-02-25T04:43:33.194Z,-0.81
2018-02-25T04:46:00.997Z,-0.77
2018-02-25T04:48:28.671Z,-0.66
2018-02-25T04:50:56.410Z,-0.60
2018-02-25T04:53:24.074Z,-0.59
2018-02-25T04:55:51.739Z,-0.61
2018-02-25T04:58:19.595Z,-0.59
2018-02-25T05:00:47.265Z,-0.89
2018-02-25T05:03:14.962Z,-0.93
2018-02-25T05:05:42.639Z,-0.94
2018-02-25T05:08:10.326Z,-1.02
2018-02-25T05:10:38.002Z,-1.09
2018-02-25T05:13:05.693Z,-1.14
2018-02-25T05:15:33.370Z,-1.30
2018-02-25T05:18:01.122Z,-1.33
2018-02-25T05:20:28.787Z,-1.29
2018-02-25T05:22:56.486Z,-1.22
2018-02-25T05:25:24.155Z,-1.28
2018-02-25T05:27:51.882Z,-1.21
2018-02-25T05:32:53.670Z,-1.68
2018-02-25T05:35:21.334Z,-1.92
2018-02-25T05:37:49.006Z,-2.12
2018-02-25T05:40:16.702Z,-2.12
2018-02-25T05:42:44.369Z,-2.15
2018-02-25T05:45:12.091Z,-2.12
2018-02-25T05:47:39.742Z,-2.13
2018-02-25T05:50:07.439Z,-2.27
2018-02-25T05:52:35.166Z,-2.38
2018-02-25T05:55:02.882Z,-2.42
2018-02-25T05:57:30.585Z,-2.47
2018-02-25T05:59:58.210Z,-2.47
2018-02-25T06:02:25.907Z,-2.57
2018-02-25T06:04:53.562Z,-2.66
2018-02-25T06:07:21.279Z,-2.66
2018-02-25T06:09:48.951Z,-2.58
2018-02-25T06:12:16.635Z,-2.49
2018-02-25T06:14:44.342Z,-2.45
2018-02-25T06:17:12.054Z,-2.51
2018-02-25T06:19:39.725Z,-2.43
2018-02-25T06:22:07.425Z,-2.42
2018-02-25T06:24:35.122Z,-2.52
2018-02-25T06:27:02.790Z,-2.51
2018-02-25T06:29:30.513Z,-2.78
2018-02-25T06:31:58.217Z,-2.82
2018-02-25T06:34:25.922Z,-2.83
2018-02-25T06:36:53.598Z,-2.79
2018-02-25T06:39:21.294Z,-2.80
2018-02-25T06:41:48.978Z,-2.83
2018-02-25T06:44:16.689Z,-2.70
2018-02-25T06:46:44.355Z,-2.64
2018-02-25T06:49:12.042Z,-2.63
2018-02-25T06:51:39.737Z,-2.50
2018-02-25T06:54:07.400Z,-2.49
2018-02-25T06:56:35.090Z,-2.54
2018-02-25T06:59:02.783Z,-2.49
2018-02-25T07:01:30.499Z,-2.42
2018-02-25T07:03:58.162Z,-2.45
2018-02-25T07:06:25.961Z,-2.52
2018-02-25T07:08:53.622Z,-2.49
2018-02-25T07:11:21.338Z,-2.51
2018-02-25T07:13:49.024Z,-2.48
2018-02-25T07:16:16.751Z,-2.42
2018-02-25T07:18:44.422Z,-2.35
2018-02-25T07:21:12.082Z,-2.41
2018-02-25T07:23:39.994Z,-2.35
2018-02-25T07:26:07.656Z,-2.36
2018-02-25T07:28:35.350Z,-2.40
2018-02-25T07:31:03.006Z,-2.48
2018-02-25T07:33:30.714Z,-2.44
2018-02-25T07:35:58.395Z,-2.40
2018-02-25T07:38:26.118Z,-2.33
2018-02-25T07:40:53.787Z,-2.31
2018-02-25T07:43:21.494Z,-2.36
2018-02-25T07:45:49.165Z,-2.35
2018-02-25T07:48:17.026Z,-2.32
2018-02-25T07:50:44.689Z,-2.33
2018-02-25T07:53:12.400Z,-2.37
2018-02-25T07:55:40.072Z,-2.30
2018-02-25T07:58:07.769Z,-2.19
2018-02-25T08:00:35.495Z,-2.05
2018-02-25T08:03:03.218Z,-1.93
2018-02-25T08:05:30.907Z,-2.03
2018-02-25T08:07:58.580Z,-2.06
2018-02-25T08:10:26.398Z,-2.18
2018-02-25T08:12:54.065Z,-2.22
2018-02-25T08:15:21.859Z,-2.20
2018-02-25T08:17:49.531Z,-2.17
2018-02-25T08:20:17.234Z,-2.17
2018-02-25T08:22:44.915Z,-2.11
2018-02-25T08:25:12.685Z,-1.97
2018-02-25T08:27:40.399Z,-1.84
2018-02-25T08:30:08.058Z,-1.78
2018-02-25T08:32:35.772Z,-1.77
2018-02-25T08:35:03.428Z,-1.79
2018-02-25T08:37:31.123Z,-1.79
2018-02-25T08:39:58.803Z,-1.68
2018-02-25T08:42:26.504Z,-1.58
2018-02-25T08:44:54.249Z,-1.42
2018-02-25T08:47:21.947Z,-1.37
2018-02-25T08:49:50.299Z,-1.32
2018-02-25T08:52:19.018Z,-1.19
2018-02-25T08:54:46.692Z,-1.18
2018-02-25T08:57:14.386Z,-1.09
2018-02-25T08:59:42.043Z,-0.96
2018-02-25T09:02:09.738Z,-1.03
2018-02-25T09:04:37.408Z,-1.12
2018-02-25T09:07:05.114Z,-1.06
2018-02-25T09:09:32.846Z,-1.12
2018-02-25T09:12:00.544Z,-0.95
2018-02-25T09:14:28.211Z,-0.85
2018-02-25T09:16:55.908Z,-0.81
2018-02-25T09:19:23.570Z,-0.66
2018-02-25T09:21:51.276Z,-0.62
2018-02-25T09:24:18.959Z,-0.67
2018-02-25T09:26:46.642Z,-0.49
2018-02-25T09:29:14.319Z,-0.41
2018-02-25T09:31:42.050Z,-0.39
2018-02-25T09:34:09.730Z,-0.37
2018-02-25T09:36:37.422Z,-0.50
2018-02-25T09:39:05.238Z,-0.44
2018-02-25T09:41:33.032Z,-0.15
2018-02-25T09:44:00.690Z,0.08
2018-02-25T09:46:28.386Z,0.05
2018-02-25T09:48:56.054Z,-0.02
2018-02-25T09:51:23.752Z,0.24
2018-02-25T09:53:51.421Z,0.49
2018-02-25T09:56:19.177Z,0.61
2018-02-25T09:58:46.841Z,0.59
2018-02-25T10:01:14.562Z,0.46
2018-02-25T10:03:42.232Z,0.57
2018-02-25T10:06:09.918Z,0.75
2018-02-25T10:08:37.579Z,1.10
2018-02-25T10:11:05.270Z,1.08
2018-02-25T10:13:32.962Z,1.06
2018-02-25T10:16:00.658Z,1.30
2018-02-25T10:18:28.357Z,1.19
2018-02-25T10:20:56.051Z,1.12
2018-02-25T10:23:23.800Z,1.30
2018-02-25T10:25:51.506Z,1.65
2018-02-25T10:28:19.185Z,1.53
2018-02-25T10:30:46.887Z,1.74
2018-02-25T10:33:14.557Z,1.83
2018-02-25T10:35:42.251Z,1.77
2018-02-25T10:38:09.916Z,1.85
2018-02-25T10:40:37.612Z,1.70
2018-02-25T10:43:05.294Z,1.99
2018-02-25T10:45:32.985Z,1.98
2018-02-25T10:48:00.688Z,2.03
2018-02-25T10:50:28.419Z,2.21
2018-02-25T10:52:56.112Z,2.20
2018-02-25T10:55:23.779Z,2.28
2018-02-25T10:57:51.471Z,2.35
2018-02-25T11:00:24.891Z,2.51
2018-02-25T11:02:52.551Z,2.82
2018-02-25T11:05:20.223Z,3.26
2018-02-25T11:07:47.928Z,3.38
2018-02-25T11:10:15.674Z,3.37
2018-02-25T11:12:43.318Z,3.60
2018-02-25T11:15:11.030Z,3.81
2018-02-25T11:17:38.678Z,3.98
2018-02-25T11:20:06.415Z,4.04
2018-02-25T11:22:34.082Z,4.30
2018-02-25T11:25:01.787Z,4.08
2018-02-25T11:27:29.478Z,4.22
2018-02-25T11:29:57.170Z,4.23
2018-02-25T11:32:24.832Z,4.47
2018-02-25T11:34:52.536Z,4.42
2018-02-25T11:37:20.212Z,4.51
2018-02-25T11:39:47.899Z,4.93
2018-02-25T11:42:15.585Z,5.13
2018-02-25T11:44:43.405Z,5.55
2018-02-25T11:47:11.047Z,5.87
2018-02-25T11:49:38.745Z,5.59
2018-02-25T11:52:06.429Z,5.91
2018-02-25T11:54:34.140Z,6.40
2018-02-25T11:57:01.737Z,6.87
2018-02-25T11:59:29.366Z,7.01
2018-02-25T12:01:56.971Z,6.47
2018-02-25T12:04:24.596Z,5.53
2018-02-25T12:06:52.170Z,5.68
2018-02-25T12:09:19.795Z,5.66
2018-02-25T12:11:47.395Z,5.42
2018-02-25T12:14:15.097Z,5.95
2018-02-25T12:16:42.772Z,6.49
2018-02-25T12:19:10.421Z,6.84
2018-02-25T12:21:38.002Z,6.74
2018-02-25T12:24:05.686Z,6.12
2018-02-25T12:26:33.279Z,6.37
2018-02-25T12:29:00.930Z,7.16
2018-02-25T12:31:28.541Z,7.10
2018-02-25T12:33:56.179Z,6.41
2018-02-25T12:36:23.820Z,7.03
2018-02-25T12:38:51.500Z,6.74
2018-02-25T12:41:19.135Z,6.27
2018-02-25T12:43:46.723Z,6.28
2018-02-25T12:46:14.326Z,6.69
2018-02-25T12:48:41.974Z,7.55
2018-02-25T12:51:09.604Z,8.30
2018-02-25T12:53:37.222Z,7.88
2018-02-25T12:56:04.817Z,8.19
2018-02-25T12:58:32.450Z,8.11
2018-02-25T13:01:00.065Z,7.95
2018-02-25T13:03:27.737Z,8.45
2018-02-25T13:05:55.299Z,8.44
2018-02-25T13:08:22.910Z,8.66
2018-02-25T13:10:50.498Z,8.59
2018-02-25T13:13:18.114Z,8.72
2018-02-25T13:15:45.716Z,8.35
2018-02-25T13:18:13.339Z,8.76
2018-02-25T13:20:40.958Z,8.53
2018-02-25T13:23:08.713Z,7.87
2018-02-25T13:25:36.299Z,7.36
2018-02-25T13:28:03.931Z,7.58
2018-02-25T13:30:31.624Z,7.18
2018-02-25T13:32:59.255Z,7.71
2018-02-25T13:35:26.859Z,7.98
2018-02-25T13:37:54.499Z,8.21
2018-02-25T13:40:22.096Z,7.86
2018-02-25T13:42:49.731Z,8.36
2018-02-25T13:45:17.340Z,8.52
2018-02-25T13:47:44.955Z,7.60
2018-02-25T13:50:12.543Z,7.46
2018-02-25T13:52:40.158Z,8.03
2018-02-25T13:55:09.272Z,8.18
2018-02-25T13:57:36.979Z,7.63
2018-02-25T14:00:04.606Z,8.22
2018-02-25T14:02:32.289Z,8.55
2018-02-25T14:04:59.934Z,9.11
2018-02-25T14:07:27.547Z,8.84
2018-02-25T14:09:55.139Z,9.00
2018-02-25T14:12:22.818Z,8.89
2018-02-25T14:14:50.409Z,8.57
2018-02-25T14:17:17.994Z,9.06
2018-02-25T14:19:45.714Z,9.19
2018-02-25T14:22:13.301Z,9.37
2018-02-25T14:24:40.932Z,9.75
2018-02-25T14:27:08.545Z,9.98
2018-02-25T14:29:36.141Z,10.15
2018-02-25T14:32:03.901Z,10.49
2018-02-25T14:34:31.502Z,10.28
2018-02-25T14:36:59.107Z,10.45
2018-02-25T14:39:26.722Z,10.53
2018-02-25T14:41:54.314Z,10.25
2018-02-25T14:44:22.146Z,9.82
2018-02-25T14:46:49.783Z,9.65
2018-02-25T14:49:17.406Z,9.61
2018-02-25T14:51:44.998Z,9.47
2018-02-25T14:54:12.635Z,9.42
2018-02-25T14:56:40.250Z,9.21
2018-02-25T14:59:07.886Z,9.43
2018-02-25T15:01:35.478Z,9.33
2018-02-25T15:04:03.107Z,9.15
2018-02-25T15:06:30.719Z,8.50
2018-02-25T15:08:58.467Z,8.54
2018-02-25T15:11:26.054Z,8.60
2018-02-25T15:13:53.722Z,8.71
2018-02-25T15:16:21.414Z,8.84
2018-02-25T15:18:49.070Z,8.76
2018-02-25T15:21:16.642Z,8.76
2018-02-25T15:23:44.267Z,8.75
2018-02-25T15:26:11.861Z,8.74
2018-02-25T15:28:39.496Z,8.98
2018-02-25T15:31:07.127Z,8.77
2018-02-25T15:33:34.767Z,9.06
2018-02-25T15:36:02.372Z,8.61
2018-02-25T15:38:30.003Z,8.32
2018-02-25T15:40:57.602Z,8.39
2018-02-25T15:43:25.241Z,8.29
2018-02-25T15:45:52.842Z,8.21
2018-02-25T15:48:20.462Z,8.31
2018-02-25T15:50:48.231Z,8.38
2018-02-25T15:53:15.857Z,8.30
2018-02-25T15:55:43.436Z,8.51
2018-02-25T15:58:11.070Z,8.19
2018-02-25T16:00:38.809Z,8.35
2018-02-25T16:03:06.622Z,7.91
2018-02-25T16:05:34.219Z,7.77
2018-02-25T16:08:01.843Z,7.60
2018-02-25T16:10:29.586Z,7.30
2018-02-25T16:12:57.225Z,7.11
2018-02-25T16:15:24.804Z,7.20
2018-02-25T16:17:52.423Z,7.22
2018-02-25T16:20:20.007Z,6.93
2018-02-25T16:22:47.702Z,6.53
2018-02-25T16:25:15.314Z,6.48
2018-02-25T16:27:42.933Z,6.40
2018-02-25T16:30:10.555Z,6.01
2018-02-25T16:32:38.187Z,5.56
2018-02-25T16:35:05.867Z,5.24
2018-02-25T16:37:33.504Z,4.75
2018-02-25T16:40:01.598Z,4.40
2018-02-25T16:42:29.344Z,4.28
2018-02-25T16:44:56.959Z,4.33
2018-02-25T16:47:24.676Z,4.29
2018-02-25T16:49:52.411Z,4.03
2018-02-25T16:52:20.110Z,3.83
2018-02-25T16:54:47.777Z,3.62
2018-02-25T16:57:15.486Z,3.40
2018-02-25T16:59:43.190Z,3.31
2018-02-25T17:02:10.879Z,3.16
2018-02-25T17:04:38.582Z,3.04
2018-02-25T17:07:06.311Z,3.08
2018-02-25T17:09:33.977Z,2.94
2018-02-25T17:12:01.713Z,3.09
2018-02-25T17:14:29.467Z,3.05
2018-02-25T17:16:57.171Z,3.03
2018-02-25T17:19:24.839Z,2.83
2018-02-25T17:21:52.562Z,2.82
2018-02-25T17:24:21.168Z,2.79
2018-02-25T17:26:48.897Z,2.87
2018-02-25T17:29:16.642Z,2.67
2018-02-25T17:31:44.374Z,2.62
2018-02-25T17:34:12.075Z,2.40
2018-02-25T17:36:39.784Z,2.54
2018-02-25T17:39:07.474Z,2.55
2018-02-25T17:41:35.167Z,2.66
2018-02-25T17:44:02.883Z,2.63
2018-02-25T17:46:30.606Z,2.63
2018-02-25T17:48:58.284Z,2.63
2018-02-25T17:51:26.130Z,2.72
2018-02-25T17:53:53.792Z,2.81
2018-02-25T17:56:21.506Z,2.60
2018-02-25T17:58:49.195Z,2.49
2018-02-25T18:01:16.915Z,2.42
2018-02-25T18:03:45.635Z,2.36
2018-02-25T18:06:13.352Z,2.44
2018-02-25T18:08:41.051Z,2.55
2018-02-25T18:11:08.764Z,2.43
2018-02-25T18:13:36.435Z,2.47
2018-02-25T18:16:04.091Z,2.62
2018-02-25T18:18:31.802Z,2.71
2018-02-25T18:20:59.463Z,2.73
2018-02-25T18:23:27.174Z,2.79
2018-02-25T18:25:54.846Z,2.78
2018-02-25T18:28:22.539Z,2.63
2018-02-25T18:30:50.208Z,2.53
2018-02-25T18:33:17.899Z,2.56
2018-02-25T18:35:45.574Z,2.49
2018-02-25T18:38:13.311Z,2.44
2018-02-25T18:40:40.979Z,2.54
2018-02-25T18:43:08.685Z,2.43
2018-02-25T18:45:36.330Z,2.50
2018-02-25T18:48:04.047Z,2.39
2018-02-25T18:50:31.718Z,2.05
2018-02-25T18:52:59.423Z,1.82
2018-02-25T18:55:27.094Z,1.95
2018-02-25T18:57:54.810Z,1.98
2018-02-25T19:00:22.466Z,1.86
2018-02-25T19:02:50.172Z,1.86
2018-02-25T19:05:17.867Z,1.95
2018-02-25T19:07:45.573Z,2.02
2018-02-25T19:10:13.255Z,1.94
2018-02-25T19:12:40.962Z,1.75
2018-02-25T19:15:08.792Z,1.73
2018-02-25T19:17:36.486Z,1.60
2018-02-25T19:20:04.162Z,1.57
2018-02-25T19:22:31.882Z,1.69
2018-02-25T19:24:59.576Z,1.71
2018-02-25T19:27:27.286Z,1.51
2018-02-25T19:29:54.967Z,1.45
2018-02-25T19:32:22.692Z,1.43
2018-02-25T19:34:51.810Z,1.37
2018-02-25T19:37:25.120Z,1.32
2018-02-25T19:39:58.665Z,1.23
2018-02-25T19:42:26.435Z,1.29
2018-02-25T19:44:54.079Z,1.27
2018-02-25T19:47:21.831Z,1.40
2018-02-25T19:49:49.510Z,1.61
2018-02-25T19:52:17.204Z,1.62
2018-02-25T19:54:44.928Z,1.67
2018-02-25T19:57:12.588Z,1.62
2018-02-25T19:59:40.279Z,1.55
2018-02-25T20:02:08.064Z,1.37
2018-02-25T20:04:35.687Z,1.03
2018-02-25T20:07:03.476Z,0.84
2018-02-25T20:09:31.146Z,0.99
2018-02-25T20:11:58.880Z,1.07
2018-02-25T20:14:26.593Z,1.07
2018-02-25T20:16:54.314Z,1.14
2018-02-25T20:19:21.981Z,1.25
2018-02-25T20:21:49.689Z,1.09
2018-02-25T20:24:17.356Z,1.12
2018-02-25T20:26:45.052Z,1.13
2018-02-25T20:29:12.747Z,1.18
2018-02-25T20:31:40.480Z,1.23
2018-02-25T20:34:08.142Z,1.17
2018-02-25T20:36:35.955Z,0.99
2018-02-25T20:39:03.642Z,0.84
2018-02-25T20:41:31.334Z,0.93
2018-02-25T20:43:59.028Z,0.96
2018-02-25T20:46:26.740Z,0.80
2018-02-25T20:48:54.419Z,0.81
2018-02-25T20:51:22.090Z,0.76
2018-02-25T20:53:49.790Z,0.57
2018-02-25T20:56:17.454Z,0.67
2018-02-25T20:58:45.164Z,0.74
2018-02-25T21:01:12.858Z,0.85
2018-02-25T21:03:40.746Z,0.84
2018-02-25T21:06:08.451Z,0.87
2018-02-25T21:08:36.115Z,0.85
2018-02-25T21:11:03.830Z,0.79
2018-02-25T21:13:31.502Z,0.76
2018-02-25T21:15:59.200Z,0.70
2018-02-25T21:18:26.863Z,0.72
2018-02-25T21:20:54.685Z,0.69
2018-02-25T21:23:22.370Z,0.80
2018-02-25T21:25:50.081Z,0.80
2018-02-25T21:28:17.774Z,0.74
2018-02-25T21:30:45.466Z,0.71
2018-02-25T21:33:13.312Z,0.65
2018-02-25T21:35:41.068Z,0.50
2018-02-25T21:38:08.718Z,0.42
2018-02-25T21:40:36.431Z,0.39
2018-02-25T21:43:04.130Z,0.50
2018-02-25T21:45:31.822Z,0.59
2018-02-25T21:47:59.508Z,0.53
2018-02-25T21:50:27.220Z,0.52
2018-02-25T21:52:54.883Z,0.57
2018-02-25T21:55:22.566Z,0.45
2018-02-25T21:57:55.767Z,0.26
2018-02-25T22:00:29.102Z,0.33
2018-02-25T22:03:02.151Z,0.41
2018-02-25T22:05:29.840Z,0.50
2018-02-25T22:07:57.505Z,0.35
2018-02-25T22:10:25.194Z,0.34
2018-02-25T22:12:52.866Z,0.23
2018-02-25T22:15:20.518Z,0.22
2018-02-25T22:17:48.227Z,0.28
2018-02-25T22:20:15.878Z,0.24
2018-02-25T22:22:43.588Z,-0.07
2018-02-25T22:25:11.277Z,-0.10
2018-02-25T22:27:39.100Z,-0.08
2018-02-25T22:30:06.722Z,-0.08
2018-02-25T22:32:34.430Z,-0.13
2018-02-25T22:35:02.098Z,-0.04
2018-02-25T22:37:29.818Z,-0.03
2018-02-25T22:39:57.582Z,-0.05
2018-02-25T22:42:25.272Z,-0.11
2018-02-25T22:44:52.935Z,-0.09
2018-02-25T22:47:20.624Z,0.03
2018-02-25T22:49:48.274Z,0.10
2018-02-25T22:52:16.015Z,0.03
2018-02-25T22:54:43.691Z,-0.04
2018-02-25T22:57:11.466Z,-0.04
2018-02-25T22:59:39.138Z,-0.07
2018-02-25T23:02:06.826Z,-0.26
2018-02-25T23:04:34.482Z,-0.20
2018-02-25T23:07:02.174Z,-0.58
2018-02-25T23:09:29.838Z,-0.73
2018-02-25T23:11:57.531Z,-0.74
2018-02-25T23:14:25.287Z,-0.70
2018-02-25T23:16:52.953Z,-0.82
2018-02-25T23:19:20.704Z,-0.69
2018-02-25T23:21:48.372Z,-0.57
2018-02-25T23:24:16.222Z,-0.70
2018-02-25T23:26:43.914Z,-0.71
2018-02-25T23:29:11.585Z,-0.71
2018-02-25T23:31:39.282Z,-0.52
2018-02-25T23:34:07.103Z,-0.48
2018-02-25T23:36:34.790Z,-0.69
2018-02-25T23:39:02.493Z,-0.53
2018-02-25T23:41:30.209Z,-0.35
2018-02-25T23:43:57.877Z,-0.36
2018-02-25T23:46:25.591Z,-0.28
2018-02-25T23:48:53.264Z,-0.30
2018-02-25T23:51:20.967Z,-0.43
2018-02-25T23:53:48.630Z,-0.37
2018-02-25T23:56:16.345Z,-0.58
2018-02-25T23:58:44.027Z,-0.72
